sensor_id;sensor_type;location;lat;lon;timestamp;temperature;humidity
68480;DHT22;55469;48.934;12.050;2023-04-16T00:01:11;10.30;90.00
68480;DHT22;55469;48.934;12.050;2023-04-16T00:03:36;10.30;90.00
68480;DHT22;55469;48.934;12.050;2023-04-16T00:06:02;10.30;90.00
68480;DHT22;55469;48.934;12.050;2023-04-16T00:08:28;10.30;90.00
68480;DHT22;55469;48.934;12.050;2023-04-16T00:10:53;10.20;90.00
68480;DHT22;55469;48.934;12.050;2023-04-16T00:13:19;10.30;90.10
68480;DHT22;55469;48.934;12.050;2023-04-16T00:15:45;10.30;90.10
68480;DHT22;55469;48.934;12.050;2023-04-16T00:18:11;10.20;90.00
68480;DHT22;55469;48.934;12.050;2023-04-16T00:20:36;10.30;90.10
68480;DHT22;55469;48.934;12.050;2023-04-16T00:23:02;10.20;90.10
68480;DHT22;55469;48.934;12.050;2023-04-16T00:25:28;10.20;90.10
68480;DHT22;55469;48.934;12.050;2023-04-16T00:27:54;10.20;90.10
68480;DHT22;55469;48.934;12.050;2023-04-16T00:30:20;10.20;90.60
68480;DHT22;55469;48.934;12.050;2023-04-16T00:32:45;10.20;90.50
68480;DHT22;55469;48.934;12.050;2023-04-16T00:35:11;10.20;90.10
68480;DHT22;55469;48.934;12.050;2023-04-16T00:37:37;10.20;90.10
68480;DHT22;55469;48.934;12.050;2023-04-16T00:40:03;10.20;90.10
68480;DHT22;55469;48.934;12.050;2023-04-16T00:42:29;10.10;90.10
68480;DHT22;55469;48.934;12.050;2023-04-16T00:44:55;10.10;90.10
68480;DHT22;55469;48.934;12.050;2023-04-16T00:47:21;10.10;90.10
68480;DHT22;55469;48.934;12.050;2023-04-16T00:49:47;10.10;90.10
68480;DHT22;55469;48.934;12.050;2023-04-16T00:52:13;10.10;90.10
68480;DHT22;55469;48.934;12.050;2023-04-16T00:54:39;10.10;90.10
68480;DHT22;55469;48.934;12.050;2023-04-16T00:57:05;10.10;90.10
68480;DHT22;55469;48.934;12.050;2023-04-16T00:59:31;10.10;90.20
68480;DHT22;55469;48.934;12.050;2023-04-16T01:01:57;10.10;90.20
68480;DHT22;55469;48.934;12.050;2023-04-16T01:04:23;10.10;90.20
68480;DHT22;55469;48.934;12.050;2023-04-16T01:06:48;10.10;90.10
68480;DHT22;55469;48.934;12.050;2023-04-16T01:09:15;10.10;90.10
68480;DHT22;55469;48.934;12.050;2023-04-16T01:11:41;10.10;90.10
68480;DHT22;55469;48.934;12.050;2023-04-16T01:14:07;10.00;90.10
68480;DHT22;55469;48.934;12.050;2023-04-16T01:16:33;10.10;90.20
68480;DHT22;55469;48.934;12.050;2023-04-16T01:18:58;10.00;90.20
68480;DHT22;55469;48.934;12.050;2023-04-16T01:21:24;10.00;90.20
68480;DHT22;55469;48.934;12.050;2023-04-16T01:23:50;10.10;90.20
68480;DHT22;55469;48.934;12.050;2023-04-16T01:26:16;10.00;90.20
68480;DHT22;55469;48.934;12.050;2023-04-16T01:28:42;10.00;90.20
68480;DHT22;55469;48.934;12.050;2023-04-16T01:31:08;10.00;90.20
68480;DHT22;55469;48.934;12.050;2023-04-16T01:33:33;10.00;90.20
68480;DHT22;55469;48.934;12.050;2023-04-16T01:35:59;10.00;90.20
68480;DHT22;55469;48.934;12.050;2023-04-16T01:38:25;10.00;90.20
68480;DHT22;55469;48.934;12.050;2023-04-16T01:40:55;10.00;90.30
68480;DHT22;55469;48.934;12.050;2023-04-16T01:43:22;10.00;90.30
68480;DHT22;55469;48.934;12.050;2023-04-16T01:45:47;9.90;90.20
68480;DHT22;55469;48.934;12.050;2023-04-16T01:48:13;9.90;90.30
68480;DHT22;55469;48.934;12.050;2023-04-16T01:50:39;9.90;90.30
68480;DHT22;55469;48.934;12.050;2023-04-16T01:53:05;9.90;90.30
68480;DHT22;55469;48.934;12.050;2023-04-16T01:55:32;9.90;90.30
68480;DHT22;55469;48.934;12.050;2023-04-16T01:57:58;9.90;90.30
68480;DHT22;55469;48.934;12.050;2023-04-16T02:00:23;9.90;90.30
68480;DHT22;55469;48.934;12.050;2023-04-16T02:02:49;9.90;90.40
68480;DHT22;55469;48.934;12.050;2023-04-16T02:05:15;9.90;90.40
68480;DHT22;55469;48.934;12.050;2023-04-16T02:07:41;9.90;90.40
68480;DHT22;55469;48.934;12.050;2023-04-16T02:10:07;9.80;90.40
68480;DHT22;55469;48.934;12.050;2023-04-16T02:12:34;9.80;90.40
68480;DHT22;55469;48.934;12.050;2023-04-16T02:15:01;9.80;90.50
68480;DHT22;55469;48.934;12.050;2023-04-16T02:17:27;9.80;90.40
68480;DHT22;55469;48.934;12.050;2023-04-16T02:19:53;9.80;90.40
68480;DHT22;55469;48.934;12.050;2023-04-16T02:22:19;9.80;90.40
68480;DHT22;55469;48.934;12.050;2023-04-16T02:24:44;9.80;90.40
68480;DHT22;55469;48.934;12.050;2023-04-16T02:27:10;9.80;90.40
68480;DHT22;55469;48.934;12.050;2023-04-16T02:29:36;9.80;90.50
68480;DHT22;55469;48.934;12.050;2023-04-16T02:32:02;9.80;90.50
68480;DHT22;55469;48.934;12.050;2023-04-16T02:34:27;9.70;90.50
68480;DHT22;55469;48.934;12.050;2023-04-16T02:36:53;9.70;90.50
68480;DHT22;55469;48.934;12.050;2023-04-16T02:39:19;9.70;90.50
68480;DHT22;55469;48.934;12.050;2023-04-16T02:41:45;9.70;90.50
68480;DHT22;55469;48.934;12.050;2023-04-16T02:44:11;9.70;90.50
68480;DHT22;55469;48.934;12.050;2023-04-16T02:46:36;9.70;90.50
68480;DHT22;55469;48.934;12.050;2023-04-16T02:49:02;9.70;90.50
68480;DHT22;55469;48.934;12.050;2023-04-16T02:51:28;9.70;90.50
68480;DHT22;55469;48.934;12.050;2023-04-16T02:53:53;9.70;90.50
68480;DHT22;55469;48.934;12.050;2023-04-16T02:56:19;9.70;90.50
68480;DHT22;55469;48.934;12.050;2023-04-16T02:58:45;9.70;90.50
68480;DHT22;55469;48.934;12.050;2023-04-16T03:01:11;9.70;90.50
68480;DHT22;55469;48.934;12.050;2023-04-16T03:03:36;9.70;90.50
68480;DHT22;55469;48.934;12.050;2023-04-16T03:06:02;9.70;90.50
68480;DHT22;55469;48.934;12.050;2023-04-16T03:08:28;9.70;90.50
68480;DHT22;55469;48.934;12.050;2023-04-16T03:10:53;9.60;90.50
68480;DHT22;55469;48.934;12.050;2023-04-16T03:13:19;9.60;90.50
68480;DHT22;55469;48.934;12.050;2023-04-16T03:15:48;9.70;90.50
68480;DHT22;55469;48.934;12.050;2023-04-16T03:18:14;9.60;90.50
68480;DHT22;55469;48.934;12.050;2023-04-16T03:20:40;9.60;90.60
68480;DHT22;55469;48.934;12.050;2023-04-16T03:23:06;9.60;90.50
68480;DHT22;55469;48.934;12.050;2023-04-16T03:25:31;9.60;90.60
68480;DHT22;55469;48.934;12.050;2023-04-16T03:27:57;9.60;90.50
68480;DHT22;55469;48.934;12.050;2023-04-16T03:30:23;9.60;90.50
68480;DHT22;55469;48.934;12.050;2023-04-16T03:32:49;9.60;90.60
68480;DHT22;55469;48.934;12.050;2023-04-16T03:35:15;9.60;90.60
68480;DHT22;55469;48.934;12.050;2023-04-16T03:37:40;9.60;90.50
68480;DHT22;55469;48.934;12.050;2023-04-16T03:40:06;9.60;90.50
68480;DHT22;55469;48.934;12.050;2023-04-16T03:42:32;9.50;90.50
68480;DHT22;55469;48.934;12.050;2023-04-16T03:44:58;9.50;90.60
68480;DHT22;55469;48.934;12.050;2023-04-16T03:47:25;9.50;90.50
68480;DHT22;55469;48.934;12.050;2023-04-16T03:49:50;9.60;90.60
68480;DHT22;55469;48.934;12.050;2023-04-16T03:52:16;9.50;90.60
68480;DHT22;55469;48.934;12.050;2023-04-16T03:54:42;9.50;90.60
68480;DHT22;55469;48.934;12.050;2023-04-16T03:57:07;9.50;90.60
68480;DHT22;55469;48.934;12.050;2023-04-16T03:59:33;9.50;90.60
68480;DHT22;55469;48.934;12.050;2023-04-16T04:01:59;9.50;90.60
68480;DHT22;55469;48.934;12.050;2023-04-16T04:04:24;9.50;90.70
68480;DHT22;55469;48.934;12.050;2023-04-16T04:06:50;9.50;90.60
68480;DHT22;55469;48.934;12.050;2023-04-16T04:09:16;9.50;90.60
68480;DHT22;55469;48.934;12.050;2023-04-16T04:11:42;9.50;90.60
68480;DHT22;55469;48.934;12.050;2023-04-16T04:14:08;9.50;90.60
68480;DHT22;55469;48.934;12.050;2023-04-16T04:16:33;9.50;90.60
68480;DHT22;55469;48.934;12.050;2023-04-16T04:18:59;9.50;90.60
68480;DHT22;55469;48.934;12.050;2023-04-16T04:21:26;9.50;90.70
68480;DHT22;55469;48.934;12.050;2023-04-16T04:23:53;9.50;90.70
68480;DHT22;55469;48.934;12.050;2023-04-16T04:26:19;9.50;90.70
68480;DHT22;55469;48.934;12.050;2023-04-16T04:28:45;9.40;90.70
68480;DHT22;55469;48.934;12.050;2023-04-16T04:31:11;9.40;90.70
68480;DHT22;55469;48.934;12.050;2023-04-16T04:33:37;9.40;90.60
68480;DHT22;55469;48.934;12.050;2023-04-16T04:36:03;9.40;90.60
68480;DHT22;55469;48.934;12.050;2023-04-16T04:38:29;9.40;90.60
68480;DHT22;55469;48.934;12.050;2023-04-16T04:40:55;9.40;90.60
68480;DHT22;55469;48.934;12.050;2023-04-16T04:43:21;9.40;90.70
68480;DHT22;55469;48.934;12.050;2023-04-16T04:45:47;9.40;90.60
68480;DHT22;55469;48.934;12.050;2023-04-16T04:48:14;9.40;90.60
68480;DHT22;55469;48.934;12.050;2023-04-16T04:50:40;9.40;90.60
68480;DHT22;55469;48.934;12.050;2023-04-16T04:53:07;9.40;90.60
68480;DHT22;55469;48.934;12.050;2023-04-16T04:55:36;9.40;90.60
68480;DHT22;55469;48.934;12.050;2023-04-16T04:58:07;9.40;91.10
68480;DHT22;55469;48.934;12.050;2023-04-16T05:00:33;9.50;90.90
68480;DHT22;55469;48.934;12.050;2023-04-16T05:03:02;9.40;90.90
68480;DHT22;55469;48.934;12.050;2023-04-16T05:05:28;9.40;90.90
68480;DHT22;55469;48.934;12.050;2023-04-16T05:07:54;9.50;90.90
68480;DHT22;55469;48.934;12.050;2023-04-16T05:10:20;9.50;90.80
68480;DHT22;55469;48.934;12.050;2023-04-16T05:12:46;9.70;90.70
68480;DHT22;55469;48.934;12.050;2023-04-16T05:15:13;9.90;90.50
68480;DHT22;55469;48.934;12.050;2023-04-16T05:17:39;10.10;90.00
68480;DHT22;55469;48.934;12.050;2023-04-16T05:20:05;10.30;89.20
68480;DHT22;55469;48.934;12.050;2023-04-16T05:22:32;10.50;88.60
68480;DHT22;55469;48.934;12.050;2023-04-16T05:24:57;10.70;87.90
68480;DHT22;55469;48.934;12.050;2023-04-16T05:27:23;10.90;87.40
68480;DHT22;55469;48.934;12.050;2023-04-16T05:29:49;11.00;87.90
68480;DHT22;55469;48.934;12.050;2023-04-16T05:32:15;11.20;86.40
68480;DHT22;55469;48.934;12.050;2023-04-16T05:34:41;11.30;86.10
68480;DHT22;55469;48.934;12.050;2023-04-16T05:37:06;11.40;85.60
68480;DHT22;55469;48.934;12.050;2023-04-16T05:39:32;11.50;85.30
68480;DHT22;55469;48.934;12.050;2023-04-16T05:41:58;11.70;85.00
68480;DHT22;55469;48.934;12.050;2023-04-16T05:44:24;11.70;84.70
68480;DHT22;55469;48.934;12.050;2023-04-16T05:46:50;11.80;84.40
68480;DHT22;55469;48.934;12.050;2023-04-16T05:49:16;11.90;84.00
68480;DHT22;55469;48.934;12.050;2023-04-16T05:51:43;12.00;83.80
68480;DHT22;55469;48.934;12.050;2023-04-16T05:54:09;12.10;83.50
68480;DHT22;55469;48.934;12.050;2023-04-16T05:56:34;12.20;83.60
68480;DHT22;55469;48.934;12.050;2023-04-16T05:59:00;12.30;83.50
68480;DHT22;55469;48.934;12.050;2023-04-16T06:01:26;12.40;83.00
68480;DHT22;55469;48.934;12.050;2023-04-16T06:03:52;12.60;82.90
68480;DHT22;55469;48.934;12.050;2023-04-16T06:06:17;12.70;82.80
68480;DHT22;55469;48.934;12.050;2023-04-16T06:08:43;12.90;82.70
68480;DHT22;55469;48.934;12.050;2023-04-16T06:11:09;12.90;82.50
68480;DHT22;55469;48.934;12.050;2023-04-16T06:13:35;13.00;82.40
68480;DHT22;55469;48.934;12.050;2023-04-16T06:16:01;13.10;82.30
68480;DHT22;55469;48.934;12.050;2023-04-16T06:18:27;13.20;82.20
68480;DHT22;55469;48.934;12.050;2023-04-16T06:20:53;13.30;81.90
68480;DHT22;55469;48.934;12.050;2023-04-16T06:23:19;13.40;81.60
68480;DHT22;55469;48.934;12.050;2023-04-16T06:25:44;13.50;81.50
68480;DHT22;55469;48.934;12.050;2023-04-16T06:28:10;13.60;81.20
68480;DHT22;55469;48.934;12.050;2023-04-16T06:30:36;13.70;81.20
68480;DHT22;55469;48.934;12.050;2023-04-16T06:33:02;13.80;81.10
68480;DHT22;55469;48.934;12.050;2023-04-16T06:35:27;13.90;81.00
68480;DHT22;55469;48.934;12.050;2023-04-16T06:37:53;13.90;80.80
68480;DHT22;55469;48.934;12.050;2023-04-16T06:40:19;14.00;80.80
68480;DHT22;55469;48.934;12.050;2023-04-16T06:42:44;14.10;80.70
68480;DHT22;55469;48.934;12.050;2023-04-16T06:45:10;14.20;80.40
68480;DHT22;55469;48.934;12.050;2023-04-16T06:47:36;14.30;80.40
68480;DHT22;55469;48.934;12.050;2023-04-16T06:50:02;14.40;80.40
68480;DHT22;55469;48.934;12.050;2023-04-16T06:52:28;14.40;80.30
68480;DHT22;55469;48.934;12.050;2023-04-16T06:54:54;14.40;80.00
68480;DHT22;55469;48.934;12.050;2023-04-16T06:57:20;14.60;80.00
68480;DHT22;55469;48.934;12.050;2023-04-16T06:59:46;14.60;79.90
68480;DHT22;55469;48.934;12.050;2023-04-16T07:02:12;14.70;79.60
68480;DHT22;55469;48.934;12.050;2023-04-16T07:04:38;14.70;79.40
68480;DHT22;55469;48.934;12.050;2023-04-16T07:07:03;14.80;79.40
68480;DHT22;55469;48.934;12.050;2023-04-16T07:09:29;14.90;79.10
68480;DHT22;55469;48.934;12.050;2023-04-16T07:11:55;15.00;79.00
68480;DHT22;55469;48.934;12.050;2023-04-16T07:14:21;15.00;79.80
68480;DHT22;55469;48.934;12.050;2023-04-16T07:16:46;15.10;78.70
68480;DHT22;55469;48.934;12.050;2023-04-16T07:19:12;15.10;78.80
68480;DHT22;55469;48.934;12.050;2023-04-16T07:21:38;15.10;78.60
68480;DHT22;55469;48.934;12.050;2023-04-16T07:24:06;15.20;79.60
68480;DHT22;55469;48.934;12.050;2023-04-16T07:26:32;15.30;78.50
68480;DHT22;55469;48.934;12.050;2023-04-16T07:28:57;15.30;78.30
68480;DHT22;55469;48.934;12.050;2023-04-16T07:31:23;15.40;78.50
68480;DHT22;55469;48.934;12.050;2023-04-16T07:33:49;15.50;78.30
68480;DHT22;55469;48.934;12.050;2023-04-16T07:36:14;15.30;78.50
68480;DHT22;55469;48.934;12.050;2023-04-16T07:38:40;15.00;79.40
68480;DHT22;55469;48.934;12.050;2023-04-16T07:41:06;14.30;79.30
68480;DHT22;55469;48.934;12.050;2023-04-16T07:43:32;14.30;81.60
68480;DHT22;55469;48.934;12.050;2023-04-16T07:45:58;14.30;81.40
68480;DHT22;55469;48.934;12.050;2023-04-16T07:48:23;14.30;81.30
68480;DHT22;55469;48.934;12.050;2023-04-16T07:50:49;14.30;81.20
68480;DHT22;55469;48.934;12.050;2023-04-16T07:53:15;14.30;81.40
68480;DHT22;55469;48.934;12.050;2023-04-16T07:55:40;14.30;81.40
68480;DHT22;55469;48.934;12.050;2023-04-16T07:58:06;14.30;81.50
68480;DHT22;55469;48.934;12.050;2023-04-16T08:00:34;14.30;81.70
68480;DHT22;55469;48.934;12.050;2023-04-16T08:03:00;14.20;81.80
68480;DHT22;55469;48.934;12.050;2023-04-16T08:05:25;14.20;81.80
68480;DHT22;55469;48.934;12.050;2023-04-16T08:07:51;14.20;81.70
68480;DHT22;55469;48.934;12.050;2023-04-16T08:10:17;14.30;81.40
68480;DHT22;55469;48.934;12.050;2023-04-16T08:12:43;14.30;81.30
68480;DHT22;55469;48.934;12.050;2023-04-16T08:15:09;14.30;81.20
68480;DHT22;55469;48.934;12.050;2023-04-16T08:17:35;14.30;81.20
68480;DHT22;55469;48.934;12.050;2023-04-16T08:20:02;14.30;81.00
68480;DHT22;55469;48.934;12.050;2023-04-16T08:22:28;14.30;81.00
68480;DHT22;55469;48.934;12.050;2023-04-16T08:24:53;14.40;81.00
68480;DHT22;55469;48.934;12.050;2023-04-16T08:27:19;14.40;81.00
68480;DHT22;55469;48.934;12.050;2023-04-16T08:29:46;14.40;80.90
68480;DHT22;55469;48.934;12.050;2023-04-16T08:32:12;14.40;80.90
68480;DHT22;55469;48.934;12.050;2023-04-16T08:34:38;14.40;80.90
68480;DHT22;55469;48.934;12.050;2023-04-16T08:37:03;14.40;80.70
68480;DHT22;55469;48.934;12.050;2023-04-16T08:39:29;14.40;80.80
68480;DHT22;55469;48.934;12.050;2023-04-16T08:41:55;14.50;80.70
68480;DHT22;55469;48.934;12.050;2023-04-16T08:44:30;14.50;80.60
68480;DHT22;55469;48.934;12.050;2023-04-16T08:46:57;14.50;80.50
68480;DHT22;55469;48.934;12.050;2023-04-16T08:49:24;14.50;81.50
68480;DHT22;55469;48.934;12.050;2023-04-16T08:51:55;14.60;80.40
68480;DHT22;55469;48.934;12.050;2023-04-16T08:54:42;14.60;80.30
68480;DHT22;55469;48.934;12.050;2023-04-16T08:57:17;14.60;80.10
68480;DHT22;55469;48.934;12.050;2023-04-16T08:59:47;14.70;80.20
68480;DHT22;55469;48.934;12.050;2023-04-16T09:02:13;14.60;80.20
68480;DHT22;55469;48.934;12.050;2023-04-16T09:04:40;14.70;80.30
68480;DHT22;55469;48.934;12.050;2023-04-16T09:07:07;14.70;80.20
68480;DHT22;55469;48.934;12.050;2023-04-16T09:09:34;14.70;80.00
68480;DHT22;55469;48.934;12.050;2023-04-16T09:12:00;14.80;79.80
68480;DHT22;55469;48.934;12.050;2023-04-16T09:14:26;14.80;79.90
68480;DHT22;55469;48.934;12.050;2023-04-16T09:16:52;14.90;79.70
68480;DHT22;55469;48.934;12.050;2023-04-16T09:19:22;14.90;79.60
68480;DHT22;55469;48.934;12.050;2023-04-16T09:21:48;14.90;80.40
68480;DHT22;55469;48.934;12.050;2023-04-16T09:24:15;15.00;79.40
68480;DHT22;55469;48.934;12.050;2023-04-16T09:26:41;15.00;79.20
68480;DHT22;55469;48.934;12.050;2023-04-16T09:29:09;15.00;79.10
68480;DHT22;55469;48.934;12.050;2023-04-16T09:31:35;15.10;79.00
68480;DHT22;55469;48.934;12.050;2023-04-16T09:34:06;15.20;79.00
68480;DHT22;55469;48.934;12.050;2023-04-16T09:36:34;15.20;79.00
68480;DHT22;55469;48.934;12.050;2023-04-16T09:39:01;15.20;79.20
68480;DHT22;55469;48.934;12.050;2023-04-16T09:41:32;15.20;79.40
68480;DHT22;55469;48.934;12.050;2023-04-16T09:44:03;15.20;79.10
68480;DHT22;55469;48.934;12.050;2023-04-16T09:46:30;15.20;79.60
68480;DHT22;55469;48.934;12.050;2023-04-16T09:49:11;15.30;79.00
68480;DHT22;55469;48.934;12.050;2023-04-16T09:51:48;15.30;79.00
68480;DHT22;55469;48.934;12.050;2023-04-16T09:54:18;15.30;78.70
68480;DHT22;55469;48.934;12.050;2023-04-16T09:56:45;15.30;79.10
68480;DHT22;55469;48.934;12.050;2023-04-16T09:59:22;15.30;79.00
68480;DHT22;55469;48.934;12.050;2023-04-16T10:01:49;15.30;78.90
68480;DHT22;55469;48.934;12.050;2023-04-16T10:04:15;15.30;79.20
68480;DHT22;55469;48.934;12.050;2023-04-16T10:06:41;15.30;79.20
68480;DHT22;55469;48.934;12.050;2023-04-16T10:09:07;15.30;79.00
68480;DHT22;55469;48.934;12.050;2023-04-16T10:11:34;15.40;80.10
68480;DHT22;55469;48.934;12.050;2023-04-16T10:14:00;15.40;78.80
68480;DHT22;55469;48.934;12.050;2023-04-16T10:16:26;15.50;78.70
68480;DHT22;55469;48.934;12.050;2023-04-16T10:18:52;15.50;78.70
68480;DHT22;55469;48.934;12.050;2023-04-16T10:21:21;15.50;78.60
68480;DHT22;55469;48.934;12.050;2023-04-16T10:23:47;15.60;78.50
68480;DHT22;55469;48.934;12.050;2023-04-16T10:26:14;15.60;78.50
68480;DHT22;55469;48.934;12.050;2023-04-16T10:28:44;15.60;78.40
68480;DHT22;55469;48.934;12.050;2023-04-16T10:31:10;15.60;78.30
68480;DHT22;55469;48.934;12.050;2023-04-16T10:33:40;15.60;78.40
68480;DHT22;55469;48.934;12.050;2023-04-16T10:36:07;15.70;78.40
68480;DHT22;55469;48.934;12.050;2023-04-16T10:38:38;15.70;78.30
68480;DHT22;55469;48.934;12.050;2023-04-16T10:41:05;15.70;78.30
68480;DHT22;55469;48.934;12.050;2023-04-16T10:43:41;15.70;78.30
68480;DHT22;55469;48.934;12.050;2023-04-16T10:46:30;15.70;78.30
68480;DHT22;55469;48.934;12.050;2023-04-16T10:49:02;15.80;78.30
68480;DHT22;55469;48.934;12.050;2023-04-16T10:51:40;15.80;78.30
68480;DHT22;55469;48.934;12.050;2023-04-16T10:56:39;15.90;78.10
68480;DHT22;55469;48.934;12.050;2023-04-16T10:59:06;15.90;78.00
68480;DHT22;55469;48.934;12.050;2023-04-16T11:01:34;16.00;77.80
68480;DHT22;55469;48.934;12.050;2023-04-16T11:07:13;16.10;77.70
68480;DHT22;55469;48.934;12.050;2023-04-16T11:12:41;16.10;77.60
68480;DHT22;55469;48.934;12.050;2023-04-16T11:15:10;16.20;77.60
68480;DHT22;55469;48.934;12.050;2023-04-16T11:17:48;16.10;77.50
68480;DHT22;55469;48.934;12.050;2023-04-16T11:20:27;16.20;77.20
68480;DHT22;55469;48.934;12.050;2023-04-16T11:22:55;16.30;77.20
68480;DHT22;55469;48.934;12.050;2023-04-16T11:25:26;16.30;77.00
68480;DHT22;55469;48.934;12.050;2023-04-16T11:27:58;16.30;77.00
68480;DHT22;55469;48.934;12.050;2023-04-16T11:30:34;16.40;77.00
68480;DHT22;55469;48.934;12.050;2023-04-16T11:33:06;16.40;76.80
68480;DHT22;55469;48.934;12.050;2023-04-16T11:35:33;16.50;76.90
68480;DHT22;55469;48.934;12.050;2023-04-16T11:37:59;16.50;76.80
68480;DHT22;55469;48.934;12.050;2023-04-16T11:40:28;16.50;76.70
68480;DHT22;55469;48.934;12.050;2023-04-16T11:42:58;16.60;76.50
68480;DHT22;55469;48.934;12.050;2023-04-16T11:45:26;16.60;76.50
68480;DHT22;55469;48.934;12.050;2023-04-16T11:47:53;16.60;76.40
68480;DHT22;55469;48.934;12.050;2023-04-16T11:51:04;16.70;76.30
68480;DHT22;55469;48.934;12.050;2023-04-16T11:53:30;16.80;76.50
68480;DHT22;55469;48.934;12.050;2023-04-16T11:55:56;16.80;76.50
68480;DHT22;55469;48.934;12.050;2023-04-16T11:58:22;16.80;76.40
68480;DHT22;55469;48.934;12.050;2023-04-16T12:00:48;17.00;76.60
68480;DHT22;55469;48.934;12.050;2023-04-16T12:03:17;17.00;76.50
68480;DHT22;55469;48.934;12.050;2023-04-16T12:05:43;17.00;76.40
68480;DHT22;55469;48.934;12.050;2023-04-16T12:08:10;17.10;76.20
68480;DHT22;55469;48.934;12.050;2023-04-16T12:10:52;17.20;76.20
68480;DHT22;55469;48.934;12.050;2023-04-16T12:13:18;17.20;76.20
68480;DHT22;55469;48.934;12.050;2023-04-16T12:15:49;17.20;76.20
68480;DHT22;55469;48.934;12.050;2023-04-16T12:18:17;17.20;76.10
68480;DHT22;55469;48.934;12.050;2023-04-16T12:20:45;17.20;76.10
68480;DHT22;55469;48.934;12.050;2023-04-16T12:23:27;17.10;76.20
68480;DHT22;55469;48.934;12.050;2023-04-16T12:25:54;17.10;76.50
68480;DHT22;55469;48.934;12.050;2023-04-16T12:28:34;17.10;76.90
68480;DHT22;55469;48.934;12.050;2023-04-16T12:31:01;17.10;76.90
68480;DHT22;55469;48.934;12.050;2023-04-16T12:33:27;17.10;77.20
68480;DHT22;55469;48.934;12.050;2023-04-16T12:35:53;17.10;77.20
68480;DHT22;55469;48.934;12.050;2023-04-16T12:38:19;17.10;77.30
68480;DHT22;55469;48.934;12.050;2023-04-16T12:40:45;17.10;77.40
68480;DHT22;55469;48.934;12.050;2023-04-16T12:43:11;17.10;77.40
68480;DHT22;55469;48.934;12.050;2023-04-16T12:45:38;17.20;77.30
68480;DHT22;55469;48.934;12.050;2023-04-16T12:48:04;17.20;77.40
68480;DHT22;55469;48.934;12.050;2023-04-16T12:50:30;17.20;77.50
68480;DHT22;55469;48.934;12.050;2023-04-16T12:52:57;17.20;77.70
68480;DHT22;55469;48.934;12.050;2023-04-16T12:55:24;17.20;77.90
68480;DHT22;55469;48.934;12.050;2023-04-16T12:57:50;17.10;78.10
68480;DHT22;55469;48.934;12.050;2023-04-16T13:00:19;17.10;78.10
68480;DHT22;55469;48.934;12.050;2023-04-16T13:02:45;17.10;78.20
68480;DHT22;55469;48.934;12.050;2023-04-16T13:05:10;17.10;78.40
68480;DHT22;55469;48.934;12.050;2023-04-16T13:07:37;17.20;78.40
68480;DHT22;55469;48.934;12.050;2023-04-16T13:10:04;17.20;78.30
68480;DHT22;55469;48.934;12.050;2023-04-16T13:12:30;17.20;78.10
68480;DHT22;55469;48.934;12.050;2023-04-16T13:14:57;17.30;78.00
68480;DHT22;55469;48.934;12.050;2023-04-16T13:17:22;17.40;77.70
68480;DHT22;55469;48.934;12.050;2023-04-16T13:19:48;17.40;77.60
68480;DHT22;55469;48.934;12.050;2023-04-16T13:22:14;17.40;77.60
68480;DHT22;55469;48.934;12.050;2023-04-16T13:24:40;17.50;77.40
68480;DHT22;55469;48.934;12.050;2023-04-16T13:27:06;17.50;77.40
68480;DHT22;55469;48.934;12.050;2023-04-16T13:29:33;17.60;77.30
68480;DHT22;55469;48.934;12.050;2023-04-16T13:32:01;17.60;77.10
68480;DHT22;55469;48.934;12.050;2023-04-16T13:34:26;17.70;77.00
68480;DHT22;55469;48.934;12.050;2023-04-16T13:36:52;17.80;76.70
68480;DHT22;55469;48.934;12.050;2023-04-16T13:39:18;17.90;76.40
68480;DHT22;55469;48.934;12.050;2023-04-16T13:41:43;18.00;76.30
68480;DHT22;55469;48.934;12.050;2023-04-16T13:46:31;18.10;76.00
68480;DHT22;55469;48.934;12.050;2023-04-16T13:48:57;18.10;75.80
68480;DHT22;55469;48.934;12.050;2023-04-16T13:51:22;18.10;75.60
68480;DHT22;55469;48.934;12.050;2023-04-16T13:53:48;18.20;75.60
68480;DHT22;55469;48.934;12.050;2023-04-16T13:56:14;18.20;75.30
68480;DHT22;55469;48.934;12.050;2023-04-16T13:58:40;18.20;75.50
68480;DHT22;55469;48.934;12.050;2023-04-16T14:01:06;18.10;75.90
68480;DHT22;55469;48.934;12.050;2023-04-16T14:03:32;18.00;76.20
68480;DHT22;55469;48.934;12.050;2023-04-16T14:06:01;17.90;76.50
68480;DHT22;55469;48.934;12.050;2023-04-16T14:08:27;17.80;76.60
68480;DHT22;55469;48.934;12.050;2023-04-16T14:10:53;17.80;76.50
68480;DHT22;55469;48.934;12.050;2023-04-16T14:13:19;17.70;76.50
68480;DHT22;55469;48.934;12.050;2023-04-16T14:15:45;17.70;76.60
68480;DHT22;55469;48.934;12.050;2023-04-16T14:18:11;17.60;76.60
68480;DHT22;55469;48.934;12.050;2023-04-16T14:20:37;17.60;76.60
68480;DHT22;55469;48.934;12.050;2023-04-16T14:23:04;17.60;76.60
68480;DHT22;55469;48.934;12.050;2023-04-16T14:25:30;17.60;76.60
68480;DHT22;55469;48.934;12.050;2023-04-16T14:27:58;17.60;76.40
68480;DHT22;55469;48.934;12.050;2023-04-16T14:30:25;17.50;76.70
68480;DHT22;55469;48.934;12.050;2023-04-16T14:32:51;17.40;77.00
68480;DHT22;55469;48.934;12.050;2023-04-16T14:35:17;17.30;77.40
68480;DHT22;55469;48.934;12.050;2023-04-16T14:37:43;17.20;78.50
68480;DHT22;55469;48.934;12.050;2023-04-16T14:40:09;17.20;77.60
68480;DHT22;55469;48.934;12.050;2023-04-16T14:42:37;17.20;77.70
68480;DHT22;55469;48.934;12.050;2023-04-16T14:45:03;17.20;77.80
68480;DHT22;55469;48.934;12.050;2023-04-16T14:47:33;17.10;77.80
68480;DHT22;55469;48.934;12.050;2023-04-16T14:50:00;17.10;77.90
68480;DHT22;55469;48.934;12.050;2023-04-16T14:52:26;17.10;77.70
68480;DHT22;55469;48.934;12.050;2023-04-16T14:54:55;17.20;77.70
68480;DHT22;55469;48.934;12.050;2023-04-16T14:57:21;17.10;77.80
68480;DHT22;55469;48.934;12.050;2023-04-16T14:59:47;17.10;77.90
68480;DHT22;55469;48.934;12.050;2023-04-16T15:02:13;17.10;78.00
68480;DHT22;55469;48.934;12.050;2023-04-16T15:04:39;17.10;78.00
68480;DHT22;55469;48.934;12.050;2023-04-16T15:07:05;17.10;77.70
68480;DHT22;55469;48.934;12.050;2023-04-16T15:09:32;17.10;77.60
68480;DHT22;55469;48.934;12.050;2023-04-16T15:11:58;17.20;77.70
68480;DHT22;55469;48.934;12.050;2023-04-16T15:14:24;17.20;77.60
68480;DHT22;55469;48.934;12.050;2023-04-16T15:16:50;17.10;77.60
68480;DHT22;55469;48.934;12.050;2023-04-16T15:19:16;17.10;77.70
68480;DHT22;55469;48.934;12.050;2023-04-16T15:21:42;17.00;77.80
68480;DHT22;55469;48.934;12.050;2023-04-16T15:24:08;17.00;78.00
68480;DHT22;55469;48.934;12.050;2023-04-16T15:26:34;17.00;77.90
68480;DHT22;55469;48.934;12.050;2023-04-16T15:29:00;17.00;78.10